sensor_id;sensor_type;location;lat;lon;timestamp;temperature;humidity
3466;DHT22;1747;48.884;9.160;2022-08-19T00:01:25;23.00;99.80
3466;DHT22;1747;48.884;9.160;2022-08-19T00:03:54;23.10;99.90
3466;DHT22;1747;48.884;9.160;2022-08-19T00:06:20;23.00;99.90
3466;DHT22;1747;48.884;9.160;2022-08-19T00:08:47;23.00;99.90
3466;DHT22;1747;48.884;9.160;2022-08-19T00:11:17;22.90;99.90
3466;DHT22;1747;48.884;9.160;2022-08-19T00:13:44;22.80;99.90
3466;DHT22;1747;48.884;9.160;2022-08-19T00:16:11;22.80;99.90
3466;DHT22;1747;48.884;9.160;2022-08-19T00:18:38;22.90;99.90
3466;DHT22;1747;48.884;9.160;2022-08-19T00:21:06;22.80;99.90
3466;DHT22;1747;48.884;9.160;2022-08-19T00:23:35;22.90;99.90
3466;DHT22;1747;48.884;9.160;2022-08-19T00:26:02;22.90;99.90
3466;DHT22;1747;48.884;9.160;2022-08-19T00:28:29;22.90;99.90
3466;DHT22;1747;48.884;9.160;2022-08-19T00:30:56;22.80;99.90
3466;DHT22;1747;48.884;9.160;2022-08-19T00:33:23;22.70;99.90
3466;DHT22;1747;48.884;9.160;2022-08-19T00:35:50;22.70;99.90
3466;DHT22;1747;48.884;9.160;2022-08-19T00:38:18;22.70;99.90
3466;DHT22;1747;48.884;9.160;2022-08-19T00:40:48;22.70;99.90
3466;DHT22;1747;48.884;9.160;2022-08-19T00:43:20;22.70;99.90
3466;DHT22;1747;48.884;9.160;2022-08-19T00:45:47;22.70;99.90
3466;DHT22;1747;48.884;9.160;2022-08-19T00:48:16;22.60;99.90
3466;DHT22;1747;48.884;9.160;2022-08-19T00:50:44;22.60;99.90
3466;DHT22;1747;48.884;9.160;2022-08-19T00:53:12;22.60;99.90
3466;DHT22;1747;48.884;9.160;2022-08-19T00:55:45;22.60;99.90
3466;DHT22;1747;48.884;9.160;2022-08-19T00:58:15;22.50;99.90
3466;DHT22;1747;48.884;9.160;2022-08-19T01:00:43;22.40;99.90
3466;DHT22;1747;48.884;9.160;2022-08-19T01:03:12;22.40;99.90
3466;DHT22;1747;48.884;9.160;2022-08-19T01:05:41;22.40;99.90
3466;DHT22;1747;48.884;9.160;2022-08-19T01:08:09;22.40;99.90
3466;DHT22;1747;48.884;9.160;2022-08-19T01:10:39;22.40;99.90
3466;DHT22;1747;48.884;9.160;2022-08-19T01:13:08;22.50;99.90
3466;DHT22;1747;48.884;9.160;2022-08-19T01:15:41;22.50;99.90
3466;DHT22;1747;48.884;9.160;2022-08-19T01:18:11;22.60;99.90
3466;DHT22;1747;48.884;9.160;2022-08-19T01:20:40;22.60;99.90
3466;DHT22;1747;48.884;9.160;2022-08-19T01:23:08;22.50;99.90
3466;DHT22;1747;48.884;9.160;2022-08-19T01:25:40;22.40;99.90
3466;DHT22;1747;48.884;9.160;2022-08-19T01:28:15;22.40;99.90
3466;DHT22;1747;48.884;9.160;2022-08-19T01:30:44;22.40;99.90
3466;DHT22;1747;48.884;9.160;2022-08-19T01:33:12;22.30;99.90
3466;DHT22;1747;48.884;9.160;2022-08-19T01:35:40;22.30;99.90
3466;DHT22;1747;48.884;9.160;2022-08-19T01:38:18;22.30;99.90
3466;DHT22;1747;48.884;9.160;2022-08-19T01:40:45;22.40;99.90
3466;DHT22;1747;48.884;9.160;2022-08-19T01:43:12;22.30;99.90
3466;DHT22;1747;48.884;9.160;2022-08-19T01:45:39;22.20;99.90
3466;DHT22;1747;48.884;9.160;2022-08-19T01:48:07;22.20;99.90
3466;DHT22;1747;48.884;9.160;2022-08-19T01:50:35;22.30;99.90
3466;DHT22;1747;48.884;9.160;2022-08-19T01:53:06;22.30;99.90
3466;DHT22;1747;48.884;9.160;2022-08-19T01:55:36;22.20;99.90
3466;DHT22;1747;48.884;9.160;2022-08-19T01:58:05;22.20;99.90
3466;DHT22;1747;48.884;9.160;2022-08-19T02:00:32;22.30;99.90
3466;DHT22;1747;48.884;9.160;2022-08-19T02:02:59;22.30;99.90
3466;DHT22;1747;48.884;9.160;2022-08-19T02:05:27;22.30;99.90
3466;DHT22;1747;48.884;9.160;2022-08-19T02:07:54;22.20;99.90
3466;DHT22;1747;48.884;9.160;2022-08-19T02:10:22;22.20;99.90
3466;DHT22;1747;48.884;9.160;2022-08-19T02:12:50;22.10;99.90
3466;DHT22;1747;48.884;9.160;2022-08-19T02:15:18;22.10;99.90
3466;DHT22;1747;48.884;9.160;2022-08-19T02:17:46;22.20;99.90
3466;DHT22;1747;48.884;9.160;2022-08-19T02:20:13;22.20;99.90
3466;DHT22;1747;48.884;9.160;2022-08-19T02:22:40;22.20;99.90
3466;DHT22;1747;48.884;9.160;2022-08-19T02:25:23;22.10;99.90
3466;DHT22;1747;48.884;9.160;2022-08-19T02:27:51;22.10;99.90
3466;DHT22;1747;48.884;9.160;2022-08-19T02:30:19;22.20;99.90
3466;DHT22;1747;48.884;9.160;2022-08-19T02:32:46;22.10;99.90
3466;DHT22;1747;48.884;9.160;2022-08-19T02:35:13;22.10;99.90
3466;DHT22;1747;48.884;9.160;2022-08-19T02:37:41;22.00;99.90
3466;DHT22;1747;48.884;9.160;2022-08-19T02:40:26;21.90;99.90
3466;DHT22;1747;48.884;9.160;2022-08-19T02:42:55;21.90;99.90
3466;DHT22;1747;48.884;9.160;2022-08-19T02:45:21;21.90;99.90
3466;DHT22;1747;48.884;9.160;2022-08-19T02:47:48;22.00;99.90
3466;DHT22;1747;48.884;9.160;2022-08-19T02:50:15;21.90;99.90
3466;DHT22;1747;48.884;9.160;2022-08-19T02:52:42;21.80;99.90
3466;DHT22;1747;48.884;9.160;2022-08-19T02:55:09;21.80;99.90
3466;DHT22;1747;48.884;9.160;2022-08-19T02:57:36;21.80;99.90
3466;DHT22;1747;48.884;9.160;2022-08-19T03:00:06;21.80;99.90
3466;DHT22;1747;48.884;9.160;2022-08-19T03:02:34;21.80;99.90
3466;DHT22;1747;48.884;9.160;2022-08-19T03:05:02;21.90;99.90
3466;DHT22;1747;48.884;9.160;2022-08-19T03:07:29;21.80;99.90
3466;DHT22;1747;48.884;9.160;2022-08-19T03:09:56;21.70;99.90
3466;DHT22;1747;48.884;9.160;2022-08-19T03:12:23;21.70;99.90
3466;DHT22;1747;48.884;9.160;2022-08-19T03:14:50;21.80;99.90
3466;DHT22;1747;48.884;9.160;2022-08-19T03:17:19;21.70;99.90
3466;DHT22;1747;48.884;9.160;2022-08-19T03:19:46;21.60;99.90
3466;DHT22;1747;48.884;9.160;2022-08-19T03:22:13;21.70;99.90
3466;DHT22;1747;48.884;9.160;2022-08-19T03:24:40;21.70;99.90
3466;DHT22;1747;48.884;9.160;2022-08-19T03:27:08;21.60;99.90
3466;DHT22;1747;48.884;9.160;2022-08-19T03:29:37;21.70;99.90
3466;DHT22;1747;48.884;9.160;2022-08-19T03:32:05;21.60;99.90
3466;DHT22;1747;48.884;9.160;2022-08-19T03:34:36;21.50;99.90
3466;DHT22;1747;48.884;9.160;2022-08-19T03:37:06;21.50;99.90
3466;DHT22;1747;48.884;9.160;2022-08-19T03:39:35;21.50;99.90
3466;DHT22;1747;48.884;9.160;2022-08-19T03:42:02;21.40;99.90
3466;DHT22;1747;48.884;9.160;2022-08-19T03:44:30;21.30;99.90
3466;DHT22;1747;48.884;9.160;2022-08-19T03:46:59;21.30;99.90
3466;DHT22;1747;48.884;9.160;2022-08-19T03:49:28;21.20;99.90
3466;DHT22;1747;48.884;9.160;2022-08-19T03:51:58;21.30;99.90
3466;DHT22;1747;48.884;9.160;2022-08-19T03:54:27;21.30;99.90
3466;DHT22;1747;48.884;9.160;2022-08-19T03:56:55;21.30;99.90
3466;DHT22;1747;48.884;9.160;2022-08-19T03:59:24;21.30;99.90
3466;DHT22;1747;48.884;9.160;2022-08-19T04:01:52;21.30;99.90
3466;DHT22;1747;48.884;9.160;2022-08-19T04:04:19;21.20;99.90
3466;DHT22;1747;48.884;9.160;2022-08-19T04:06:47;21.20;99.90
3466;DHT22;1747;48.884;9.160;2022-08-19T04:09:15;21.20;99.90
3466;DHT22;1747;48.884;9.160;2022-08-19T04:11:46;21.20;99.90
3466;DHT22;1747;48.884;9.160;2022-08-19T04:14:16;21.10;99.90
3466;DHT22;1747;48.884;9.160;2022-08-19T04:16:45;21.20;99.90
3466;DHT22;1747;48.884;9.160;2022-08-19T04:19:13;21.10;99.90
3466;DHT22;1747;48.884;9.160;2022-08-19T04:21:43;21.10;99.90
3466;DHT22;1747;48.884;9.160;2022-08-19T04:24:11;21.20;99.90
3466;DHT22;1747;48.884;9.160;2022-08-19T04:26:40;21.20;99.90
3466;DHT22;1747;48.884;9.160;2022-08-19T04:29:09;21.20;99.90
3466;DHT22;1747;48.884;9.160;2022-08-19T04:31:36;21.20;99.90
3466;DHT22;1747;48.884;9.160;2022-08-19T04:34:05;21.20;99.90
3466;DHT22;1747;48.884;9.160;2022-08-19T04:36:36;21.20;99.90
3466;DHT22;1747;48.884;9.160;2022-08-19T04:39:05;21.30;99.90
3466;DHT22;1747;48.884;9.160;2022-08-19T04:41:33;21.30;99.90
3466;DHT22;1747;48.884;9.160;2022-08-19T04:44:19;21.20;99.90
3466;DHT22;1747;48.884;9.160;2022-08-19T04:46:46;21.20;99.90
3466;DHT22;1747;48.884;9.160;2022-08-19T04:49:14;21.10;99.90
3466;DHT22;1747;48.884;9.160;2022-08-19T04:51:44;21.20;99.90
3466;DHT22;1747;48.884;9.160;2022-08-19T04:54:11;21.20;99.90
3466;DHT22;1747;48.884;9.160;2022-08-19T04:56:39;21.20;99.90
3466;DHT22;1747;48.884;9.160;2022-08-19T04:59:07;21.30;99.90
3466;DHT22;1747;48.884;9.160;2022-08-19T05:01:35;21.20;99.90
3466;DHT22;1747;48.884;9.160;2022-08-19T05:04:04;21.20;99.90
3466;DHT22;1747;48.884;9.160;2022-08-19T05:06:32;21.20;99.90
3466;DHT22;1747;48.884;9.160;2022-08-19T05:09:00;21.20;99.90
3466;DHT22;1747;48.884;9.160;2022-08-19T05:11:29;21.20;99.90
3466;DHT22;1747;48.884;9.160;2022-08-19T05:13:57;21.20;99.90
3466;DHT22;1747;48.884;9.160;2022-08-19T05:16:25;21.30;99.90
3466;DHT22;1747;48.884;9.160;2022-08-19T05:18:55;21.40;99.90
3466;DHT22;1747;48.884;9.160;2022-08-19T05:21:40;21.40;99.90
3466;DHT22;1747;48.884;9.160;2022-08-19T05:24:25;21.40;99.90
3466;DHT22;1747;48.884;9.160;2022-08-19T05:26:53;21.40;99.90
3466;DHT22;1747;48.884;9.160;2022-08-19T05:29:24;21.40;99.90
3466;DHT22;1747;48.884;9.160;2022-08-19T05:31:52;21.30;99.90
3466;DHT22;1747;48.884;9.160;2022-08-19T05:34:23;21.30;99.90
3466;DHT22;1747;48.884;9.160;2022-08-19T05:36:52;21.30;99.90
3466;DHT22;1747;48.884;9.160;2022-08-19T05:39:24;21.40;99.90
3466;DHT22;1747;48.884;9.160;2022-08-19T05:41:53;21.40;99.90
3466;DHT22;1747;48.884;9.160;2022-08-19T05:44:22;21.40;99.90
3466;DHT22;1747;48.884;9.160;2022-08-19T05:46:50;21.30;99.90
3466;DHT22;1747;48.884;9.160;2022-08-19T05:49:21;21.40;99.90
3466;DHT22;1747;48.884;9.160;2022-08-19T05:51:49;21.40;99.90
3466;DHT22;1747;48.884;9.160;2022-08-19T05:54:16;21.40;99.90
3466;DHT22;1747;48.884;9.160;2022-08-19T05:56:43;21.40;99.90
3466;DHT22;1747;48.884;9.160;2022-08-19T05:59:14;21.40;99.90
3466;DHT22;1747;48.884;9.160;2022-08-19T06:01:43;21.50;99.90
3466;DHT22;1747;48.884;9.160;2022-08-19T06:04:12;21.50;99.90
3466;DHT22;1747;48.884;9.160;2022-08-19T06:06:41;21.50;99.90
3466;DHT22;1747;48.884;9.160;2022-08-19T06:09:08;21.50;99.90
3466;DHT22;1747;48.884;9.160;2022-08-19T06:11:38;21.50;99.90
3466;DHT22;1747;48.884;9.160;2022-08-19T06:14:07;21.40;99.90
3466;DHT22;1747;48.884;9.160;2022-08-19T06:16:35;21.40;99.90
3466;DHT22;1747;48.884;9.160;2022-08-19T06:19:06;21.40;99.90
3466;DHT22;1747;48.884;9.160;2022-08-19T06:21:35;21.30;99.90
3466;DHT22;1747;48.884;9.160;2022-08-19T06:24:06;21.30;99.90
3466;DHT22;1747;48.884;9.160;2022-08-19T06:26:34;21.40;99.90
3466;DHT22;1747;48.884;9.160;2022-08-19T06:29:01;21.40;99.90
3466;DHT22;1747;48.884;9.160;2022-08-19T06:31:29;21.40;99.90
3466;DHT22;1747;48.884;9.160;2022-08-19T06:33:58;21.30;99.90
3466;DHT22;1747;48.884;9.160;2022-08-19T06:36:28;21.40;99.90
3466;DHT22;1747;48.884;9.160;2022-08-19T06:38:57;21.50;99.90
3466;DHT22;1747;48.884;9.160;2022-08-19T06:41:26;21.60;99.90
3466;DHT22;1747;48.884;9.160;2022-08-19T06:43:53;21.70;99.90
3466;DHT22;1747;48.884;9.160;2022-08-19T06:46:21;21.80;99.90
3466;DHT22;1747;48.884;9.160;2022-08-19T06:48:48;21.80;99.90
3466;DHT22;1747;48.884;9.160;2022-08-19T06:51:16;21.80;99.90
3466;DHT22;1747;48.884;9.160;2022-08-19T06:53:44;21.80;99.90
3466;DHT22;1747;48.884;9.160;2022-08-19T06:56:12;21.80;99.90
3466;DHT22;1747;48.884;9.160;2022-08-19T06:58:40;21.90;99.90
3466;DHT22;1747;48.884;9.160;2022-08-19T07:01:07;22.00;99.90
3466;DHT22;1747;48.884;9.160;2022-08-19T07:03:36;22.00;99.90
3466;DHT22;1747;48.884;9.160;2022-08-19T07:06:05;22.10;99.90
3466;DHT22;1747;48.884;9.160;2022-08-19T07:08:33;22.10;99.90
3466;DHT22;1747;48.884;9.160;2022-08-19T07:11:02;22.10;99.90
3466;DHT22;1747;48.884;9.160;2022-08-19T07:13:32;22.20;99.90
3466;DHT22;1747;48.884;9.160;2022-08-19T07:16:05;22.30;99.90
3466;DHT22;1747;48.884;9.160;2022-08-19T07:18:32;22.40;99.90
3466;DHT22;1747;48.884;9.160;2022-08-19T07:21:04;22.40;99.90
3466;DHT22;1747;48.884;9.160;2022-08-19T07:23:32;22.50;99.90
3466;DHT22;1747;48.884;9.160;2022-08-19T07:26:04;22.60;99.90
3466;DHT22;1747;48.884;9.160;2022-08-19T07:28:31;22.60;99.90
3466;DHT22;1747;48.884;9.160;2022-08-19T07:30:58;22.60;99.90
3466;DHT22;1747;48.884;9.160;2022-08-19T07:33:28;22.50;99.90
3466;DHT22;1747;48.884;9.160;2022-08-19T07:35:58;22.50;99.90
3466;DHT22;1747;48.884;9.160;2022-08-19T07:38:24;22.40;99.90
3466;DHT22;1747;48.884;9.160;2022-08-19T07:40:52;22.40;99.90
3466;DHT22;1747;48.884;9.160;2022-08-19T07:43:19;22.40;99.90
3466;DHT22;1747;48.884;9.160;2022-08-19T07:45:50;22.50;99.90
3466;DHT22;1747;48.884;9.160;2022-08-19T07:48:17;22.50;99.90
3466;DHT22;1747;48.884;9.160;2022-08-19T07:50:45;22.50;99.90
3466;DHT22;1747;48.884;9.160;2022-08-19T07:53:13;22.50;99.90
3466;DHT22;1747;48.884;9.160;2022-08-19T07:55:40;22.40;99.90
3466;DHT22;1747;48.884;9.160;2022-08-19T07:58:08;22.30;99.90
3466;DHT22;1747;48.884;9.160;2022-08-19T08:00:35;22.30;99.90
3466;DHT22;1747;48.884;9.160;2022-08-19T08:03:02;22.30;99.90
3466;DHT22;1747;48.884;9.160;2022-08-19T08:05:29;22.30;99.90
3466;DHT22;1747;48.884;9.160;2022-08-19T08:08:15;22.20;99.90
3466;DHT22;1747;48.884;9.160;2022-08-19T08:11:10;22.30;99.90
3466;DHT22;1747;48.884;9.160;2022-08-19T08:13:37;22.40;99.90
3466;DHT22;1747;48.884;9.160;2022-08-19T08:16:06;22.40;99.90
3466;DHT22;1747;48.884;9.160;2022-08-19T08:18:34;22.40;99.90
3466;DHT22;1747;48.884;9.160;2022-08-19T08:21:07;22.50;99.90
3466;DHT22;1747;48.884;9.160;2022-08-19T08:23:40;22.40;99.90
3466;DHT22;1747;48.884;9.160;2022-08-19T08:26:08;22.40;99.90
3466;DHT22;1747;48.884;9.160;2022-08-19T08:28:35;22.30;99.90
3466;DHT22;1747;48.884;9.160;2022-08-19T08:31:02;22.20;99.90
3466;DHT22;1747;48.884;9.160;2022-08-19T08:33:30;22.20;99.90
3466;DHT22;1747;48.884;9.160;2022-08-19T08:35:56;22.20;99.90
3466;DHT22;1747;48.884;9.160;2022-08-19T08:38:23;22.10;99.90
3466;DHT22;1747;48.884;9.160;2022-08-19T08:40:53;22.10;99.90
3466;DHT22;1747;48.884;9.160;2022-08-19T08:43:33;22.10;99.90
3466;DHT22;1747;48.884;9.160;2022-08-19T08:46:03;22.20;99.90
3466;DHT22;1747;48.884;9.160;2022-08-19T08:48:36;22.20;99.90
3466;DHT22;1747;48.884;9.160;2022-08-19T08:51:09;22.20;99.90
3466;DHT22;1747;48.884;9.160;2022-08-19T08:53:37;22.20;99.90
3466;DHT22;1747;48.884;9.160;2022-08-19T08:56:08;22.20;99.90
3466;DHT22;1747;48.884;9.160;2022-08-19T08:58:45;22.20;99.90
3466;DHT22;1747;48.884;9.160;2022-08-19T09:01:14;22.30;99.90
3466;DHT22;1747;48.884;9.160;2022-08-19T09:03:42;22.30;99.90
3466;DHT22;1747;48.884;9.160;2022-08-19T09:06:14;22.40;99.90
3466;DHT22;1747;48.884;9.160;2022-08-19T09:08:48;22.40;99.90
3466;DHT22;1747;48.884;9.160;2022-08-19T09:11:24;22.50;99.90
3466;DHT22;1747;48.884;9.160;2022-08-19T09:14:05;22.60;99.90
3466;DHT22;1747;48.884;9.160;2022-08-19T09:16:34;22.70;99.90
3466;DHT22;1747;48.884;9.160;2022-08-19T09:19:06;22.90;99.90
3466;DHT22;1747;48.884;9.160;2022-08-19T09:21:34;23.10;99.90
3466;DHT22;1747;48.884;9.160;2022-08-19T09:24:02;23.20;99.90
3466;DHT22;1747;48.884;9.160;2022-08-19T09:26:32;23.30;99.90
3466;DHT22;1747;48.884;9.160;2022-08-19T09:28:59;23.50;99.90
3466;DHT22;1747;48.884;9.160;2022-08-19T09:31:29;23.60;99.90
3466;DHT22;1747;48.884;9.160;2022-08-19T09:33:56;23.60;99.90
3466;DHT22;1747;48.884;9.160;2022-08-19T09:36:25;23.70;99.90
3466;DHT22;1747;48.884;9.160;2022-08-19T09:38:52;23.70;99.90
3466;DHT22;1747;48.884;9.160;2022-08-19T09:41:21;23.70;99.90
3466;DHT22;1747;48.884;9.160;2022-08-19T09:43:54;23.80;99.90
3466;DHT22;1747;48.884;9.160;2022-08-19T09:46:24;23.80;99.90
3466;DHT22;1747;48.884;9.160;2022-08-19T09:48:51;23.70;99.90
3466;DHT22;1747;48.884;9.160;2022-08-19T09:51:21;23.90;99.90
3466;DHT22;1747;48.884;9.160;2022-08-19T09:53:49;23.80;99.90
3466;DHT22;1747;48.884;9.160;2022-08-19T09:56:18;23.90;99.90
3466;DHT22;1747;48.884;9.160;2022-08-19T09:58:46;23.80;99.90
3466;DHT22;1747;48.884;9.160;2022-08-19T10:01:18;23.80;99.90
3466;DHT22;1747;48.884;9.160;2022-08-19T10:03:48;23.80;99.90
3466;DHT22;1747;48.884;9.160;2022-08-19T10:06:16;23.80;99.90
3466;DHT22;1747;48.884;9.160;2022-08-19T10:08:45;23.70;99.90
3466;DHT22;1747;48.884;9.160;2022-08-19T10:11:15;23.70;99.90
3466;DHT22;1747;48.884;9.160;2022-08-19T10:13:43;23.70;99.90
3466;DHT22;1747;48.884;9.160;2022-08-19T10:16:12;23.60;99.90
3466;DHT22;1747;48.884;9.160;2022-08-19T10:18:41;23.70;99.90
3466;DHT22;1747;48.884;9.160;2022-08-19T10:21:12;23.80;99.90
3466;DHT22;1747;48.884;9.160;2022-08-19T10:23:42;24.00;99.90
3466;DHT22;1747;48.884;9.160;2022-08-19T10:26:12;24.00;99.90
3466;DHT22;1747;48.884;9.160;2022-08-19T10:28:39;24.00;99.90
3466;DHT22;1747;48.884;9.160;2022-08-19T10:31:08;24.00;99.90
3466;DHT22;1747;48.884;9.160;2022-08-19T10:33:35;24.20;99.90
3466;DHT22;1747;48.884;9.160;2022-08-19T10:36:06;24.40;99.90
3466;DHT22;1747;48.884;9.160;2022-08-19T10:38:34;24.40;99.90
3466;DHT22;1747;48.884;9.160;2022-08-19T10:41:07;24.40;99.90
3466;DHT22;1747;48.884;9.160;2022-08-19T10:43:34;24.40;99.90
3466;DHT22;1747;48.884;9.160;2022-08-19T10:46:04;24.50;99.90
3466;DHT22;1747;48.884;9.160;2022-08-19T10:48:31;24.50;99.90
3466;DHT22;1747;48.884;9.160;2022-08-19T10:50:58;24.50;99.90
3466;DHT22;1747;48.884;9.160;2022-08-19T10:53:44;24.60;99.90
3466;DHT22;1747;48.884;9.160;2022-08-19T10:56:11;24.60;99.90
3466;DHT22;1747;48.884;9.160;2022-08-19T10:58:56;24.60;99.90
3466;DHT22;1747;48.884;9.160;2022-08-19T11:01:23;24.60;99.90
3466;DHT22;1747;48.884;9.160;2022-08-19T11:03:50;24.70;99.90
3466;DHT22;1747;48.884;9.160;2022-08-19T11:06:18;24.70;99.90
3466;DHT22;1747;48.884;9.160;2022-08-19T11:08:47;24.80;99.90
3466;DHT22;1747;48.884;9.160;2022-08-19T11:11:14;25.00;99.90
3466;DHT22;1747;48.884;9.160;2022-08-19T11:13:41;25.10;99.90
3466;DHT22;1747;48.884;9.160;2022-08-19T11:16:12;25.30;99.90
3466;DHT22;1747;48.884;9.160;2022-08-19T11:18:43;25.50;99.90
3466;DHT22;1747;48.884;9.160;2022-08-19T11:21:12;25.50;99.90
3466;DHT22;1747;48.884;9.160;2022-08-19T11:23:40;25.60;99.90
3466;DHT22;1747;48.884;9.160;2022-08-19T11:26:08;25.60;99.80
3466;DHT22;1747;48.884;9.160;2022-08-19T11:28:35;25.60;99.90
3466;DHT22;1747;48.884;9.160;2022-08-19T11:31:03;25.50;99.90
3466;DHT22;1747;48.884;9.160;2022-08-19T11:33:30;25.50;99.90
3466;DHT22;1747;48.884;9.160;2022-08-19T11:35:58;25.50;99.80
3466;DHT22;1747;48.884;9.160;2022-08-19T11:38:26;25.50;99.90
3466;DHT22;1747;48.884;9.160;2022-08-19T11:40:57;25.60;99.70
3466;DHT22;1747;48.884;9.160;2022-08-19T11:43:26;25.60;99.60
3466;DHT22;1747;48.884;9.160;2022-08-19T11:45:54;25.50;99.90
3466;DHT22;1747;48.884;9.160;2022-08-19T11:48:21;25.50;99.70
3466;DHT22;1747;48.884;9.160;2022-08-19T11:50:49;25.50;99.60
3466;DHT22;1747;48.884;9.160;2022-08-19T11:53:17;25.50;99.70
3466;DHT22;1747;48.884;9.160;2022-08-19T11:55:44;25.50;99.60
3466;DHT22;1747;48.884;9.160;2022-08-19T11:58:11;25.50;99.60
3466;DHT22;1747;48.884;9.160;2022-08-19T12:00:40;25.50;99.60
3466;DHT22;1747;48.884;9.160;2022-08-19T12:03:07;25.50;99.10
3466;DHT22;1747;48.884;9.160;2022-08-19T12:05:36;25.50;99.20
3466;DHT22;1747;48.884;9.160;2022-08-19T12:08:04;25.40;99.50
3466;DHT22;1747;48.884;9.160;2022-08-19T12:10:31;25.40;99.90
3466;DHT22;1747;48.884;9.160;2022-08-19T12:12:58;25.40;99.80
3466;DHT22;1747;48.884;9.160;2022-08-19T12:15:25;25.30;99.70
3466;DHT22;1747;48.884;9.160;2022-08-19T12:17:56;25.30;99.70
3466;DHT22;1747;48.884;9.160;2022-08-19T12:20:24;25.30;99.70
3466;DHT22;1747;48.884;9.160;2022-08-19T12:22:51;25.30;99.70
3466;DHT22;1747;48.884;9.160;2022-08-19T12:25:18;25.30;99.40
3466;DHT22;1747;48.884;9.160;2022-08-19T12:27:46;25.40;99.10
3466;DHT22;1747;48.884;9.160;2022-08-19T12:30:14;25.50;98.90
3466;DHT22;1747;48.884;9.160;2022-08-19T12:32:41;25.60;98.90
3466;DHT22;1747;48.884;9.160;2022-08-19T12:35:09;25.60;98.80
3466;DHT22;1747;48.884;9.160;2022-08-19T12:37:37;25.60;98.60
3466;DHT22;1747;48.884;9.160;2022-08-19T12:40:05;25.70;98.70
3466;DHT22;1747;48.884;9.160;2022-08-19T12:42:32;25.70;98.50
3466;DHT22;1747;48.884;9.160;2022-08-19T12:45:00;25.80;98.60
3466;DHT22;1747;48.884;9.160;2022-08-19T12:47:27;25.80;98.40
3466;DHT22;1747;48.884;9.160;2022-08-19T12:49:54;25.80;98.10
3466;DHT22;1747;48.884;9.160;2022-08-19T12:52:23;25.80;98.10
3466;DHT22;1747;48.884;9.160;2022-08-19T12:54:51;25.70;97.90
3466;DHT22;1747;48.884;9.160;2022-08-19T12:57:18;25.70;97.90
3466;DHT22;1747;48.884;9.160;2022-08-19T12:59:45;25.70;98.30
3466;DHT22;1747;48.884;9.160;2022-08-19T13:02:11;25.70;98.00
3466;DHT22;1747;48.884;9.160;2022-08-19T13:04:38;25.60;98.00
3466;DHT22;1747;48.884;9.160;2022-08-19T13:07:06;25.60;97.90
3466;DHT22;1747;48.884;9.160;2022-08-19T13:09:35;25.50;97.90
3466;DHT22;1747;48.884;9.160;2022-08-19T13:12:03;25.50;97.90
3466;DHT22;1747;48.884;9.160;2022-08-19T13:14:33;25.50;97.50
3466;DHT22;1747;48.884;9.160;2022-08-19T13:17:00;25.50;97.60
3466;DHT22;1747;48.884;9.160;2022-08-19T13:19:27;25.50;97.40
3466;DHT22;1747;48.884;9.160;2022-08-19T13:21:56;25.50;97.30
3466;DHT22;1747;48.884;9.160;2022-08-19T13:24:24;25.50;97.30
3466;DHT22;1747;48.884;9.160;2022-08-19T13:26:52;25.40;97.30
3466;DHT22;1747;48.884;9.160;2022-08-19T13:29:19;25.40;97.60
3466;DHT22;1747;48.884;9.160;2022-08-19T13:32:03;25.40;97.30
3466;DHT22;1747;48.884;9.160;2022-08-19T13:34:48;25.30;97.70
3466;DHT22;1747;48.884;9.160;2022-08-19T13:37:14;25.30;98.10
3466;DHT22;1747;48.884;9.160;2022-08-19T13:39:41;25.30;98.10
3466;DHT22;1747;48.884;9.160;2022-08-19T13:42:09;25.30;98.10
3466;DHT22;1747;48.884;9.160;2022-08-19T13:44:38;25.20;98.20
3466;DHT22;1747;48.884;9.160;2022-08-19T13:47:06;25.20;98.40
3466;DHT22;1747;48.884;9.160;2022-08-19T13:49:34;25.20;99.10
3466;DHT22;1747;48.884;9.160;2022-08-19T13:52:03;24.80;99.90
3466;DHT22;1747;48.884;9.160;2022-08-19T13:54:31;24.70;99.90
3466;DHT22;1747;48.884;9.160;2022-08-19T13:56:58;24.60;99.90
3466;DHT22;1747;48.884;9.160;2022-08-19T13:59:26;24.50;99.90
3466;DHT22;1747;48.884;9.160;2022-08-19T14:01:57;24.40;99.90
3466;DHT22;1747;48.884;9.160;2022-08-19T14:04:24;24.40;99.90
3466;DHT22;1747;48.884;9.160;2022-08-19T14:06:51;24.30;99.90
3466;DHT22;1747;48.884;9.160;2022-08-19T14:09:18;24.30;99.90
3466;DHT22;1747;48.884;9.160;2022-08-19T14:11:45;24.30;99.90
3466;DHT22;1747;48.884;9.160;2022-08-19T14:14:12;24.30;99.90
3466;DHT22;1747;48.884;9.160;2022-08-19T14:16:40;24.20;99.90
3466;DHT22;1747;48.884;9.160;2022-08-19T14:19:08;24.20;99.90
3466;DHT22;1747;48.884;9.160;2022-08-19T14:21:35;24.20;99.90
3466;DHT22;1747;48.884;9.160;2022-08-19T14:24:02;24.30;99.90
3466;DHT22;1747;48.884;9.160;2022-08-19T14:26:29;24.40;99.90
3466;DHT22;1747;48.884;9.160;2022-08-19T14:28:56;24.30;99.90
3466;DHT22;1747;48.884;9.160;2022-08-19T14:31:23;24.40;99.90
3466;DHT22;1747;48.884;9.160;2022-08-19T14:33:52;24.50;99.90
3466;DHT22;1747;48.884;9.160;2022-08-19T14:36:20;24.40;99.90
3466;DHT22;1747;48.884;9.160;2022-08-19T14:38:47;24.40;99.90
3466;DHT22;1747;48.884;9.160;2022-08-19T14:41:17;24.40;99.90
3466;DHT22;1747;48.884;9.160;2022-08-19T14:43:46;24.30;99.90
3466;DHT22;1747;48.884;9.160;2022-08-19T14:46:14;24.30;99.90
3466;DHT22;1747;48.884;9.160;2022-08-19T14:48:41;24.30;99.90
3466;DHT22;1747;48.884;9.160;2022-08-19T14:51:10;24.30;99.90
3466;DHT22;1747;48.884;9.160;2022-08-19T14:53:37;24.30;99.90
3466;DHT22;1747;48.884;9.160;2022-08-19T14:56:08;24.40;99.90
3466;DHT22;1747;48.884;9.160;2022-08-19T14:58:35;24.60;99.90
3466;DHT22;1747;48.884;9.160;2022-08-19T15:01:02;24.50;99.90
3466;DHT22;1747;48.884;9.160;2022-08-19T15:03:30;24.70;99.90
3466;DHT22;1747;48.884;9.160;2022-08-19T15:05:58;24.80;99.90
3466;DHT22;1747;48.884;9.160;2022-08-19T15:08:29;24.90;99.90
3466;DHT22;1747;48.884;9.160;2022-08-19T15:10:57;24.70;99.90
3466;DHT22;1747;48.884;9.160;2022-08-19T15:13:25;24.40;99.90
3466;DHT22;1747;48.884;9.160;2022-08-19T15:15:53;24.30;99.90
3466;DHT22;1747;48.884;9.160;2022-08-19T15:18:20;24.30;99.90
3466;DHT22;1747;48.884;9.160;2022-08-19T15:20:47;24.20;99.90
3466;DHT22;1747;48.884;9.160;2022-08-19T15:23:15;24.40;99.90
3466;DHT22;1747;48.884;9.160;2022-08-19T15:25:43;24.40;99.90
3466;DHT22;1747;48.884;9.160;2022-08-19T15:28:11;24.50;99.90
3466;DHT22;1747;48.884;9.160;2022-08-19T15:30:39;24.50;99.90
3466;DHT22;1747;48.884;9.160;2022-08-19T15:33:06;24.50;99.90
3466;DHT22;1747;48.884;9.160;2022-08-19T15:35:33;24.70;99.90
3466;DHT22;1747;48.884;9.160;2022-08-19T15:38:00;24.80;99.90
3466;DHT22;1747;48.884;9.160;2022-08-19T15:40:27;24.70;99.90
3466;DHT22;1747;48.884;9.160;2022-08-19T15:42:56;25.00;99.90
3466;DHT22;1747;48.884;9.160;2022-08-19T15:45:23;25.10;99.90
3466;DHT22;1747;48.884;9.160;2022-08-19T15:47:58;25.20;99.90
3466;DHT22;1747;48.884;9.160;2022-08-19T15:50:25;25.20;99.90
3466;DHT22;1747;48.884;9.160;2022-08-19T15:52:53;25.20;99.90
3466;DHT22;1747;48.884;9.160;2022-08-19T15:55:23;25.30;99.90
3466;DHT22;1747;48.884;9.160;2022-08-19T15:57:50;25.50;99.90
3466;DHT22;1747;48.884;9.160;2022-08-19T16:00:36;25.60;99.90
3466;DHT22;1747;48.884;9.160;2022-08-19T16:03:20;25.70;99.90
3466;DHT22;1747;48.884;9.160;2022-08-19T16:06:05;25.70;99.90
3466;DHT22;1747;48.884;9.160;2022-08-19T16:08:50;25.40;99.90
3466;DHT22;1747;48.884;9.160;2022-08-19T16:11:18;25.50;99.90
3466;DHT22;1747;48.884;9.160;2022-08-19T16:13:45;25.50;99.90